sensor_id;sensor_type;location;lat;lon;timestamp;P1;durP1;ratioP1;P2;durP2;ratioP2
55641;SDS011;41509;53.108;6.100;2023-04-05T00:04:07;8.50;;;2.72;;
55641;SDS011;41509;53.108;6.100;2023-04-05T00:06:54;4.78;;;2.50;;
55641;SDS011;41509;53.108;6.100;2023-04-05T00:09:23;7.85;;;2.95;;
55641;SDS011;41509;53.108;6.100;2023-04-05T00:12:12;8.15;;;2.83;;
55641;SDS011;41509;53.108;6.100;2023-04-05T00:18:18;6.38;;;2.55;;
55641;SDS011;41509;53.108;6.100;2023-04-05T00:20:58;5.78;;;2.60;;
55641;SDS011;41509;53.108;6.100;2023-04-05T00:23:27;6.50;;;2.67;;
55641;SDS011;41509;53.108;6.100;2023-04-05T00:26:13;7.00;;;2.75;;
55641;SDS011;41509;53.108;6.100;2023-04-05T00:29:15;9.98;;;2.40;;
55641;SDS011;41509;53.108;6.100;2023-04-05T00:31:41;10.05;;;2.95;;
55641;SDS011;41509;53.108;6.100;2023-04-05T00:34:11;6.63;;;3.83;;
55641;SDS011;41509;53.108;6.100;2023-04-05T00:37:28;7.70;;;3.22;;
55641;SDS011;41509;53.108;6.100;2023-04-05T00:39:46;7.47;;;2.92;;
55641;SDS011;41509;53.108;6.100;2023-04-05T00:44:53;5.60;;;2.38;;
55641;SDS011;41509;53.108;6.100;2023-04-05T00:47:18;9.17;;;2.83;;
55641;SDS011;41509;53.108;6.100;2023-04-05T00:49:44;7.33;;;3.30;;
55641;SDS011;41509;53.108;6.100;2023-04-05T00:52:14;6.68;;;2.72;;
55641;SDS011;41509;53.108;6.100;2023-04-05T00:54:39;5.20;;;2.45;;
55641;SDS011;41509;53.108;6.100;2023-04-05T00:57:07;7.13;;;2.33;;
55641;SDS011;41509;53.108;6.100;2023-04-05T00:59:33;7.15;;;3.28;;
55641;SDS011;41509;53.108;6.100;2023-04-05T01:02:00;4.87;;;2.10;;
55641;SDS011;41509;53.108;6.100;2023-04-05T01:04:34;6.07;;;3.22;;
55641;SDS011;41509;53.108;6.100;2023-04-05T01:09:42;12.30;;;3.40;;
55641;SDS011;41509;53.108;6.100;2023-04-05T01:12:17;5.20;;;2.33;;
55641;SDS011;41509;53.108;6.100;2023-04-05T01:14:48;8.18;;;3.13;;
55641;SDS011;41509;53.108;6.100;2023-04-05T01:17:19;6.20;;;2.95;;
55641;SDS011;41509;53.108;6.100;2023-04-05T01:20:02;8.18;;;3.47;;
55641;SDS011;41509;53.108;6.100;2023-04-05T01:25:53;8.18;;;3.33;;
55641;SDS011;41509;53.108;6.100;2023-04-05T01:36:56;4.75;;;2.50;;
55641;SDS011;41509;53.108;6.100;2023-04-05T01:39:29;5.93;;;3.15;;
55641;SDS011;41509;53.108;6.100;2023-04-05T01:41:58;10.10;;;3.15;;
55641;SDS011;41509;53.108;6.100;2023-04-05T01:44:25;7.88;;;3.00;;
55641;SDS011;41509;53.108;6.100;2023-04-05T01:46:51;6.70;;;2.80;;
55641;SDS011;41509;53.108;6.100;2023-04-05T01:49:17;6.97;;;3.37;;
55641;SDS011;41509;53.108;6.100;2023-04-05T01:51:43;7.75;;;2.80;;
55641;SDS011;41509;53.108;6.100;2023-04-05T01:54:09;8.00;;;3.00;;
55641;SDS011;41509;53.108;6.100;2023-04-05T01:56:35;4.27;;;2.30;;
55641;SDS011;41509;53.108;6.100;2023-04-05T01:59:00;5.53;;;2.73;;
55641;SDS011;41509;53.108;6.100;2023-04-05T02:01:26;6.60;;;3.20;;
55641;SDS011;41509;53.108;6.100;2023-04-05T02:03:54;9.02;;;3.20;;
55641;SDS011;41509;53.108;6.100;2023-04-05T02:06:21;5.23;;;2.90;;
55641;SDS011;41509;53.108;6.100;2023-04-05T02:08:46;6.55;;;2.95;;
55641;SDS011;41509;53.108;6.100;2023-04-05T02:11:12;5.83;;;3.50;;
55641;SDS011;41509;53.108;6.100;2023-04-05T02:13:38;6.10;;;2.77;;
55641;SDS011;41509;53.108;6.100;2023-04-05T02:16:03;8.77;;;3.10;;
55641;SDS011;41509;53.108;6.100;2023-04-05T02:18:29;6.70;;;3.10;;
55641;SDS011;41509;53.108;6.100;2023-04-05T02:21:02;10.30;;;3.75;;
55641;SDS011;41509;53.108;6.100;2023-04-05T02:23:29;6.18;;;2.80;;
55641;SDS011;41509;53.108;6.100;2023-04-05T02:30:54;8.85;;;2.97;;
55641;SDS011;41509;53.108;6.100;2023-04-05T02:33:20;7.75;;;3.13;;
55641;SDS011;41509;53.108;6.100;2023-04-05T02:35:49;8.32;;;2.88;;
55641;SDS011;41509;53.108;6.100;2023-04-05T02:38:16;5.63;;;2.83;;
55641;SDS011;41509;53.108;6.100;2023-04-05T02:40:41;9.47;;;3.63;;
55641;SDS011;41509;53.108;6.100;2023-04-05T02:43:07;9.53;;;3.27;;
55641;SDS011;41509;53.108;6.100;2023-04-05T02:45:32;7.83;;;3.53;;
55641;SDS011;41509;53.108;6.100;2023-04-05T02:47:58;6.50;;;2.83;;
55641;SDS011;41509;53.108;6.100;2023-04-05T02:50:24;4.93;;;3.00;;
55641;SDS011;41509;53.108;6.100;2023-04-05T02:52:52;11.57;;;3.80;;
55641;SDS011;41509;53.108;6.100;2023-04-05T02:55:17;7.50;;;2.83;;
55641;SDS011;41509;53.108;6.100;2023-04-05T02:57:43;6.27;;;2.77;;
55641;SDS011;41509;53.108;6.100;2023-04-05T03:00:09;7.03;;;3.13;;
55641;SDS011;41509;53.108;6.100;2023-04-05T03:02:36;8.38;;;3.22;;
55641;SDS011;41509;53.108;6.100;2023-04-05T03:05:04;8.70;;;3.28;;
55641;SDS011;41509;53.108;6.100;2023-04-05T03:07:31;7.07;;;3.80;;
55641;SDS011;41509;53.108;6.100;2023-04-05T03:09:59;6.32;;;3.45;;
55641;SDS011;41509;53.108;6.100;2023-04-05T03:12:25;9.60;;;3.70;;
55641;SDS011;41509;53.108;6.100;2023-04-05T03:14:53;5.03;;;2.77;;
55641;SDS011;41509;53.108;6.100;2023-04-05T03:17:19;13.02;;;3.50;;
55641;SDS011;41509;53.108;6.100;2023-04-05T03:19:45;7.43;;;3.97;;
55641;SDS011;41509;53.108;6.100;2023-04-05T03:22:10;8.70;;;4.00;;
55641;SDS011;41509;53.108;6.100;2023-04-05T03:24:36;10.07;;;3.87;;
55641;SDS011;41509;53.108;6.100;2023-04-05T03:27:02;10.37;;;4.03;;
55641;SDS011;41509;53.108;6.100;2023-04-05T03:29:30;7.50;;;3.70;;
55641;SDS011;41509;53.108;6.100;2023-04-05T03:31:56;7.10;;;3.60;;
55641;SDS011;41509;53.108;6.100;2023-04-05T03:34:23;10.82;;;3.53;;
55641;SDS011;41509;53.108;6.100;2023-04-05T03:36:56;9.98;;;4.28;;
55641;SDS011;41509;53.108;6.100;2023-04-05T03:39:21;9.60;;;4.13;;
55641;SDS011;41509;53.108;6.100;2023-04-05T03:41:49;10.73;;;4.20;;
55641;SDS011;41509;53.108;6.100;2023-04-05T03:44:15;9.73;;;4.67;;
55641;SDS011;41509;53.108;6.100;2023-04-05T03:49:08;13.18;;;4.53;;
55641;SDS011;41509;53.108;6.100;2023-04-05T03:51:33;12.23;;;5.17;;
55641;SDS011;41509;53.108;6.100;2023-04-05T03:53:59;12.03;;;5.20;;
55641;SDS011;41509;53.108;6.100;2023-04-05T03:56:25;11.93;;;4.27;;
55641;SDS011;41509;53.108;6.100;2023-04-05T03:58:51;8.77;;;4.35;;
55641;SDS011;41509;53.108;6.100;2023-04-05T04:01:17;13.85;;;4.70;;
55641;SDS011;41509;53.108;6.100;2023-04-05T04:03:42;10.63;;;4.60;;
55641;SDS011;41509;53.108;6.100;2023-04-05T04:06:08;10.60;;;4.80;;
55641;SDS011;41509;53.108;6.100;2023-04-05T04:08:35;10.57;;;5.43;;
55641;SDS011;41509;53.108;6.100;2023-04-05T04:11:01;11.30;;;4.95;;
55641;SDS011;41509;53.108;6.100;2023-04-05T04:13:27;9.10;;;5.10;;
55641;SDS011;41509;53.108;6.100;2023-04-05T04:15:52;10.57;;;4.20;;
55641;SDS011;41509;53.108;6.100;2023-04-05T04:18:18;11.53;;;4.80;;
55641;SDS011;41509;53.108;6.100;2023-04-05T04:20:44;12.80;;;5.00;;
55641;SDS011;41509;53.108;6.100;2023-04-05T04:23:10;9.17;;;4.67;;
55641;SDS011;41509;53.108;6.100;2023-04-05T04:25:38;11.93;;;5.20;;
55641;SDS011;41509;53.108;6.100;2023-04-05T04:28:06;8.63;;;4.47;;
55641;SDS011;41509;53.108;6.100;2023-04-05T04:30:31;13.60;;;6.13;;
55641;SDS011;41509;53.108;6.100;2023-04-05T04:32:59;10.60;;;5.10;;
55641;SDS011;41509;53.108;6.100;2023-04-05T04:35:28;12.43;;;5.70;;
55641;SDS011;41509;53.108;6.100;2023-04-05T04:38:12;12.32;;;5.15;;
55641;SDS011;41509;53.108;6.100;2023-04-05T04:40:44;10.88;;;4.25;;
55641;SDS011;41509;53.108;6.100;2023-04-05T04:43:18;15.13;;;4.63;;
55641;SDS011;41509;53.108;6.100;2023-04-05T04:45:53;9.95;;;3.88;;
55641;SDS011;41509;53.108;6.100;2023-04-05T04:48:19;12.03;;;5.80;;
55641;SDS011;41509;53.108;6.100;2023-04-05T04:50:48;11.23;;;5.70;;
55641;SDS011;41509;53.108;6.100;2023-04-05T04:53:14;15.70;;;5.87;;
55641;SDS011;41509;53.108;6.100;2023-04-05T04:55:42;12.82;;;5.63;;
55641;SDS011;41509;53.108;6.100;2023-04-05T04:58:08;14.00;;;6.20;;
55641;SDS011;41509;53.108;6.100;2023-04-05T05:00:39;12.45;;;6.72;;
55641;SDS011;41509;53.108;6.100;2023-04-05T05:03:11;13.63;;;5.82;;
55641;SDS011;41509;53.108;6.100;2023-04-05T05:05:44;10.57;;;5.55;;
55641;SDS011;41509;53.108;6.100;2023-04-05T05:08:11;10.80;;;6.07;;
55641;SDS011;41509;53.108;6.100;2023-04-05T05:10:37;11.57;;;4.90;;
55641;SDS011;41509;53.108;6.100;2023-04-05T05:13:03;13.00;;;5.90;;
55641;SDS011;41509;53.108;6.100;2023-04-05T05:15:28;9.63;;;5.67;;
55641;SDS011;41509;53.108;6.100;2023-04-05T05:17:54;12.87;;;6.30;;
55641;SDS011;41509;53.108;6.100;2023-04-05T05:20:20;13.57;;;5.50;;
55641;SDS011;41509;53.108;6.100;2023-04-05T05:22:46;11.27;;;5.55;;
55641;SDS011;41509;53.108;6.100;2023-04-05T05:25:14;11.43;;;5.30;;
55641;SDS011;41509;53.108;6.100;2023-04-05T05:27:40;8.47;;;5.27;;
55641;SDS011;41509;53.108;6.100;2023-04-05T05:30:06;10.20;;;5.60;;
55641;SDS011;41509;53.108;6.100;2023-04-05T05:34:58;10.35;;;4.65;;
55641;SDS011;41509;53.108;6.100;2023-04-05T05:37:28;13.20;;;4.97;;
55641;SDS011;41509;53.108;6.100;2023-04-05T05:39:57;9.38;;;5.38;;
55641;SDS011;41509;53.108;6.100;2023-04-05T05:42:23;14.70;;;6.50;;
55641;SDS011;41509;53.108;6.100;2023-04-05T05:44:48;19.53;;;7.23;;
55641;SDS011;41509;53.108;6.100;2023-04-05T05:47:14;10.30;;;5.63;;
55641;SDS011;41509;53.108;6.100;2023-04-05T05:49:40;10.07;;;5.07;;
55641;SDS011;41509;53.108;6.100;2023-04-05T05:52:05;11.27;;;5.30;;
55641;SDS011;41509;53.108;6.100;2023-04-05T05:54:31;16.60;;;5.63;;
55641;SDS011;41509;53.108;6.100;2023-04-05T05:56:56;12.50;;;5.67;;
55641;SDS011;41509;53.108;6.100;2023-04-05T05:59:23;19.90;;;6.53;;
55641;SDS011;41509;53.108;6.100;2023-04-05T06:01:49;14.20;;;6.60;;
55641;SDS011;41509;53.108;6.100;2023-04-05T06:04:15;13.32;;;5.63;;
55641;SDS011;41509;53.108;6.100;2023-04-05T06:06:41;11.20;;;5.90;;
55641;SDS011;41509;53.108;6.100;2023-04-05T06:09:08;14.02;;;6.03;;
55641;SDS011;41509;53.108;6.100;2023-04-05T06:11:34;15.90;;;6.43;;
55641;SDS011;41509;53.108;6.100;2023-04-05T06:14:00;12.27;;;6.23;;
55641;SDS011;41509;53.108;6.100;2023-04-05T06:16:26;18.47;;;7.37;;
55641;SDS011;41509;53.108;6.100;2023-04-05T06:18:53;13.32;;;5.60;;
55641;SDS011;41509;53.108;6.100;2023-04-05T06:21:20;14.40;;;6.55;;
55641;SDS011;41509;53.108;6.100;2023-04-05T06:23:46;12.57;;;6.57;;
55641;SDS011;41509;53.108;6.100;2023-04-05T06:26:18;16.67;;;6.47;;
55641;SDS011;41509;53.108;6.100;2023-04-05T06:28:45;12.77;;;5.97;;
55641;SDS011;41509;53.108;6.100;2023-04-05T06:31:14;11.98;;;6.43;;
55641;SDS011;41509;53.108;6.100;2023-04-05T06:33:44;11.98;;;6.45;;
55641;SDS011;41509;53.108;6.100;2023-04-05T06:36:10;13.03;;;6.27;;
55641;SDS011;41509;53.108;6.100;2023-04-05T06:38:35;16.93;;;7.57;;
55641;SDS011;41509;53.108;6.100;2023-04-05T06:41:03;16.35;;;6.95;;
55641;SDS011;41509;53.108;6.100;2023-04-05T06:43:29;12.87;;;6.90;;
55641;SDS011;41509;53.108;6.100;2023-04-05T06:45:56;12.82;;;6.65;;
55641;SDS011;41509;53.108;6.100;2023-04-05T06:48:22;13.68;;;6.55;;
55641;SDS011;41509;53.108;6.100;2023-04-05T06:50:55;14.47;;;6.90;;
55641;SDS011;41509;53.108;6.100;2023-04-05T06:53:21;15.25;;;7.38;;
55641;SDS011;41509;53.108;6.100;2023-04-05T06:55:48;13.73;;;6.77;;
55641;SDS011;41509;53.108;6.100;2023-04-05T06:58:14;16.88;;;7.45;;
55641;SDS011;41509;53.108;6.100;2023-04-05T07:00:40;14.50;;;7.00;;
55641;SDS011;41509;53.108;6.100;2023-04-05T07:03:06;14.00;;;7.10;;
55641;SDS011;41509;53.108;6.100;2023-04-05T07:05:31;19.33;;;6.47;;
55641;SDS011;41509;53.108;6.100;2023-04-05T07:07:57;16.43;;;7.90;;
55641;SDS011;41509;53.108;6.100;2023-04-05T07:10:23;14.20;;;7.57;;
55641;SDS011;41509;53.108;6.100;2023-04-05T07:12:49;14.93;;;6.70;;
55641;SDS011;41509;53.108;6.100;2023-04-05T07:17:40;13.90;;;7.05;;
55641;SDS011;41509;53.108;6.100;2023-04-05T07:20:06;13.67;;;7.03;;
55641;SDS011;41509;53.108;6.100;2023-04-05T07:22:32;14.60;;;7.85;;
55641;SDS011;41509;53.108;6.100;2023-04-05T07:24:59;11.90;;;6.63;;
55641;SDS011;41509;53.108;6.100;2023-04-05T07:27:25;14.17;;;6.97;;
55641;SDS011;41509;53.108;6.100;2023-04-05T07:29:51;13.67;;;7.33;;
55641;SDS011;41509;53.108;6.100;2023-04-05T07:32:16;16.50;;;7.00;;
55641;SDS011;41509;53.108;6.100;2023-04-05T07:34:42;14.07;;;7.27;;
55641;SDS011;41509;53.108;6.100;2023-04-05T07:37:08;16.80;;;7.20;;
55641;SDS011;41509;53.108;6.100;2023-04-05T07:39:33;10.50;;;5.63;;
55641;SDS011;41509;53.108;6.100;2023-04-05T07:41:59;14.52;;;6.20;;
55641;SDS011;41509;53.108;6.100;2023-04-05T07:44:25;15.60;;;6.80;;
55641;SDS011;41509;53.108;6.100;2023-04-05T07:46:51;14.93;;;6.97;;
55641;SDS011;41509;53.108;6.100;2023-04-05T07:49:16;11.50;;;6.57;;
55641;SDS011;41509;53.108;6.100;2023-04-05T07:51:42;12.83;;;6.63;;
55641;SDS011;41509;53.108;6.100;2023-04-05T07:54:08;13.77;;;7.17;;
55641;SDS011;41509;53.108;6.100;2023-04-05T07:56:35;12.95;;;7.07;;
55641;SDS011;41509;53.108;6.100;2023-04-05T07:59:01;12.25;;;6.22;;
55641;SDS011;41509;53.108;6.100;2023-04-05T08:01:27;10.10;;;5.77;;
55641;SDS011;41509;53.108;6.100;2023-04-05T08:03:53;11.33;;;7.17;;
55641;SDS011;41509;53.108;6.100;2023-04-05T08:06:21;10.25;;;5.97;;
55641;SDS011;41509;53.108;6.100;2023-04-05T08:08:48;12.10;;;7.00;;
55641;SDS011;41509;53.108;6.100;2023-04-05T08:11:14;11.77;;;6.93;;
55641;SDS011;41509;53.108;6.100;2023-04-05T08:13:40;11.67;;;6.20;;
55641;SDS011;41509;53.108;6.100;2023-04-05T08:16:06;11.90;;;6.63;;
55641;SDS011;41509;53.108;6.100;2023-04-05T08:20:58;13.13;;;6.45;;
55641;SDS011;41509;53.108;6.100;2023-04-05T08:23:24;12.98;;;5.75;;
55641;SDS011;41509;53.108;6.100;2023-04-05T08:25:51;13.68;;;5.90;;
55641;SDS011;41509;53.108;6.100;2023-04-05T08:28:17;13.13;;;6.30;;
55641;SDS011;41509;53.108;6.100;2023-04-05T08:30:43;13.60;;;6.47;;
55641;SDS011;41509;53.108;6.100;2023-04-05T08:33:10;13.52;;;5.75;;
55641;SDS011;41509;53.108;6.100;2023-04-05T08:35:36;10.60;;;5.90;;
55641;SDS011;41509;53.108;6.100;2023-04-05T08:38:02;11.95;;;5.78;;
55641;SDS011;41509;53.108;6.100;2023-04-05T08:40:32;10.25;;;5.40;;
55641;SDS011;41509;53.108;6.100;2023-04-05T08:43:09;8.80;;;4.93;;
55641;SDS011;41509;53.108;6.100;2023-04-05T08:45:36;11.13;;;5.10;;
55641;SDS011;41509;53.108;6.100;2023-04-05T08:48:10;7.88;;;4.80;;
55641;SDS011;41509;53.108;6.100;2023-04-05T08:50:36;15.40;;;6.23;;
55641;SDS011;41509;53.108;6.100;2023-04-05T08:53:01;8.80;;;4.87;;
55641;SDS011;41509;53.108;6.100;2023-04-05T08:55:27;9.50;;;4.70;;
55641;SDS011;41509;53.108;6.100;2023-04-05T08:57:53;9.00;;;5.13;;
55641;SDS011;41509;53.108;6.100;2023-04-05T09:00:23;11.02;;;4.95;;
55641;SDS011;41509;53.108;6.100;2023-04-05T09:02:53;8.50;;;5.15;;
55641;SDS011;41509;53.108;6.100;2023-04-05T09:05:20;11.00;;;5.35;;
55641;SDS011;41509;53.108;6.100;2023-04-05T09:07:48;9.75;;;4.90;;
55641;SDS011;41509;53.108;6.100;2023-04-05T09:10:16;8.48;;;4.63;;
55641;SDS011;41509;53.108;6.100;2023-04-05T09:12:44;10.32;;;4.93;;
55641;SDS011;41509;53.108;6.100;2023-04-05T09:15:10;7.45;;;4.88;;
55641;SDS011;41509;53.108;6.100;2023-04-05T09:17:37;11.00;;;5.35;;
55641;SDS011;41509;53.108;6.100;2023-04-05T09:20:05;12.27;;;4.75;;
55641;SDS011;41509;53.108;6.100;2023-04-05T09:22:40;9.23;;;5.00;;
55641;SDS011;41509;53.108;6.100;2023-04-05T09:25:08;10.32;;;4.72;;
55641;SDS011;41509;53.108;6.100;2023-04-05T09:27:33;8.50;;;4.60;;
55641;SDS011;41509;53.108;6.100;2023-04-05T09:29:59;9.57;;;4.07;;
55641;SDS011;41509;53.108;6.100;2023-04-05T09:32:25;6.93;;;3.70;;
55641;SDS011;41509;53.108;6.100;2023-04-05T09:34:53;10.32;;;3.72;;
55641;SDS011;41509;53.108;6.100;2023-04-05T09:37:19;9.27;;;3.70;;
55641;SDS011;41509;53.108;6.100;2023-04-05T09:39:46;8.40;;;3.42;;
55641;SDS011;41509;53.108;6.100;2023-04-05T09:42:17;7.35;;;4.38;;
55641;SDS011;41509;53.108;6.100;2023-04-05T09:47:19;5.97;;;3.75;;
55641;SDS011;41509;53.108;6.100;2023-04-05T09:49:45;7.68;;;3.50;;
55641;SDS011;41509;53.108;6.100;2023-04-05T09:54:43;9.07;;;3.78;;
55641;SDS011;41509;53.108;6.100;2023-04-05T09:57:08;12.33;;;4.17;;
55641;SDS011;41509;53.108;6.100;2023-04-05T09:59:34;5.95;;;3.72;;
55641;SDS011;41509;53.108;6.100;2023-04-05T10:02:07;7.60;;;4.13;;
55641;SDS011;41509;53.108;6.100;2023-04-05T10:04:42;9.68;;;4.43;;
55641;SDS011;41509;53.108;6.100;2023-04-05T10:07:10;11.23;;;3.83;;
55641;SDS011;41509;53.108;6.100;2023-04-05T10:09:38;7.82;;;4.20;;
55641;SDS011;41509;53.108;6.100;2023-04-05T10:12:05;8.45;;;4.10;;
55641;SDS011;41509;53.108;6.100;2023-04-05T10:14:33;8.05;;;3.92;;
55641;SDS011;41509;53.108;6.100;2023-04-05T10:17:14;7.22;;;3.53;;
55641;SDS011;41509;53.108;6.100;2023-04-05T10:27:54;6.65;;;3.92;;
55641;SDS011;41509;53.108;6.100;2023-04-05T10:30:24;7.57;;;3.78;;
55641;SDS011;41509;53.108;6.100;2023-04-05T10:38:46;7.45;;;3.80;;
55641;SDS011;41509;53.108;6.100;2023-04-05T10:41:13;7.20;;;4.13;;
55641;SDS011;41509;53.108;6.100;2023-04-05T10:43:39;8.00;;;4.10;;
55641;SDS011;41509;53.108;6.100;2023-04-05T10:46:06;6.68;;;3.60;;
55641;SDS011;41509;53.108;6.100;2023-04-05T10:48:36;7.72;;;4.68;;
55641;SDS011;41509;53.108;6.100;2023-04-05T10:51:18;6.15;;;4.00;;
55641;SDS011;41509;53.108;6.100;2023-04-05T10:53:47;6.35;;;3.88;;
55641;SDS011;41509;53.108;6.100;2023-04-05T10:56:15;7.35;;;3.85;;
55641;SDS011;41509;53.108;6.100;2023-04-05T10:58:42;8.15;;;4.00;;
55641;SDS011;41509;53.108;6.100;2023-04-05T11:09:07;8.82;;;4.13;;
55641;SDS011;41509;53.108;6.100;2023-04-05T11:11:42;7.82;;;3.65;;
55641;SDS011;41509;53.108;6.100;2023-04-05T11:14:19;7.38;;;4.57;;
55641;SDS011;41509;53.108;6.100;2023-04-05T11:16:53;8.60;;;4.53;;
55641;SDS011;41509;53.108;6.100;2023-04-05T11:22:07;6.35;;;3.92;;
55641;SDS011;41509;53.108;6.100;2023-04-05T11:25:06;7.55;;;3.88;;
55641;SDS011;41509;53.108;6.100;2023-04-05T11:27:28;7.55;;;3.78;;
55641;SDS011;41509;53.108;6.100;2023-04-05T11:29:55;7.70;;;3.65;;
55641;SDS011;41509;53.108;6.100;2023-04-05T11:32:41;7.03;;;3.53;;
55641;SDS011;41509;53.108;6.100;2023-04-05T11:35:17;7.75;;;3.38;;
55641;SDS011;41509;53.108;6.100;2023-04-05T11:43:01;6.07;;;3.65;;
55641;SDS011;41509;53.108;6.100;2023-04-05T11:45:30;9.55;;;3.97;;
55641;SDS011;41509;53.108;6.100;2023-04-05T11:47:58;6.25;;;3.63;;
55641;SDS011;41509;53.108;6.100;2023-04-05T11:50:27;9.18;;;3.58;;
55641;SDS011;41509;53.108;6.100;2023-04-05T11:53:12;6.82;;;3.80;;
55641;SDS011;41509;53.108;6.100;2023-04-05T11:55:47;7.23;;;3.63;;
55641;SDS011;41509;53.108;6.100;2023-04-05T11:58:17;7.03;;;3.38;;
55641;SDS011;41509;53.108;6.100;2023-04-05T12:00:56;6.95;;;4.03;;
55641;SDS011;41509;53.108;6.100;2023-04-05T12:03:22;8.82;;;4.28;;
55641;SDS011;41509;53.108;6.100;2023-04-05T12:05:53;7.68;;;3.50;;
55641;SDS011;41509;53.108;6.100;2023-04-05T12:11:40;6.47;;;3.72;;
55641;SDS011;41509;53.108;6.100;2023-04-05T12:14:06;4.78;;;3.05;;
55641;SDS011;41509;53.108;6.100;2023-04-05T12:16:47;6.00;;;3.03;;
55641;SDS011;41509;53.108;6.100;2023-04-05T12:19:24;10.57;;;4.00;;
55641;SDS011;41509;53.108;6.100;2023-04-05T12:21:57;11.38;;;4.10;;
55641;SDS011;41509;53.108;6.100;2023-04-05T12:24:43;6.88;;;3.63;;
55641;SDS011;41509;53.108;6.100;2023-04-05T12:30:18;8.32;;;3.72;;
55641;SDS011;41509;53.108;6.100;2023-04-05T12:35:58;5.57;;;3.35;;
55641;SDS011;41509;53.108;6.100;2023-04-05T12:38:28;7.43;;;3.17;;
55641;SDS011;41509;53.108;6.100;2023-04-05T12:41:11;8.07;;;3.00;;
55641;SDS011;41509;53.108;6.100;2023-04-05T12:43:46;6.32;;;3.40;;
55641;SDS011;41509;53.108;6.100;2023-04-05T12:46:15;7.43;;;3.50;;
55641;SDS011;41509;53.108;6.100;2023-04-05T12:48:51;4.90;;;2.90;;
55641;SDS011;41509;53.108;6.100;2023-04-05T12:51:31;7.65;;;3.15;;
55641;SDS011;41509;53.108;6.100;2023-04-05T12:53:59;4.88;;;2.55;;
55641;SDS011;41509;53.108;6.100;2023-04-05T12:56:29;8.63;;;3.38;;
55641;SDS011;41509;53.108;6.100;2023-04-05T12:59:05;6.35;;;3.45;;
55641;SDS011;41509;53.108;6.100;2023-04-05T13:01:42;6.28;;;3.30;;
55641;SDS011;41509;53.108;6.100;2023-04-05T13:04:08;5.70;;;3.15;;
55641;SDS011;41509;53.108;6.100;2023-04-05T13:06:36;5.87;;;3.60;;
55641;SDS011;41509;53.108;6.100;2023-04-05T13:09:19;5.22;;;3.60;;
55641;SDS011;41509;53.108;6.100;2023-04-05T13:11:45;6.07;;;3.03;;
55641;SDS011;41509;53.108;6.100;2023-04-05T13:14:14;6.40;;;3.38;;
55641;SDS011;41509;53.108;6.100;2023-04-05T13:16:45;6.75;;;3.25;;
55641;SDS011;41509;53.108;6.100;2023-04-05T13:19:13;7.90;;;3.42;;
55641;SDS011;41509;53.108;6.100;2023-04-05T13:21:39;7.63;;;3.38;;
55641;SDS011;41509;53.108;6.100;2023-04-05T13:24:08;6.65;;;3.58;;
55641;SDS011;41509;53.108;6.100;2023-04-05T13:26:34;4.60;;;3.00;;
55641;SDS011;41509;53.108;6.100;2023-04-05T13:29:12;5.60;;;3.78;;
55641;SDS011;41509;53.108;6.100;2023-04-05T13:31:38;7.00;;;3.10;;
55641;SDS011;41509;53.108;6.100;2023-04-05T13:34:06;5.70;;;3.22;;
55641;SDS011;41509;53.108;6.100;2023-04-05T13:36:37;5.63;;;3.60;;
55641;SDS011;41509;53.108;6.100;2023-04-05T13:39:13;9.15;;;3.78;;
55641;SDS011;41509;53.108;6.100;2023-04-05T13:41:42;5.68;;;3.17;;
55641;SDS011;41509;53.108;6.100;2023-04-05T13:44:12;6.03;;;2.85;;
55641;SDS011;41509;53.108;6.100;2023-04-05T13:46:53;5.60;;;3.35;;
55641;SDS011;41509;53.108;6.100;2023-04-05T13:49:19;6.07;;;3.53;;
55641;SDS011;41509;53.108;6.100;2023-04-05T13:52:04;4.93;;;3.03;;
55641;SDS011;41509;53.108;6.100;2023-04-05T13:54:32;7.43;;;3.15;;
55641;SDS011;41509;53.108;6.100;2023-04-05T13:57:25;8.23;;;3.60;;
55641;SDS011;41509;53.108;6.100;2023-04-05T13:59:54;6.33;;;3.77;;
55641;SDS011;41509;53.108;6.100;2023-04-05T14:02:25;8.45;;;2.97;;
55641;SDS011;41509;53.108;6.100;2023-04-05T14:04:57;6.93;;;3.33;;
55641;SDS011;41509;53.108;6.100;2023-04-05T14:07:25;7.88;;;3.75;;
55641;SDS011;41509;53.108;6.100;2023-04-05T14:10:02;5.65;;;3.42;;
55641;SDS011;41509;53.108;6.100;2023-04-05T14:12:38;5.95;;;3.17;;
55641;SDS011;41509;53.108;6.100;2023-04-05T14:17:48;5.63;;;2.95;;
55641;SDS011;41509;53.108;6.100;2023-04-05T14:20:22;5.50;;;3.53;;
55641;SDS011;41509;53.108;6.100;2023-04-05T14:22:54;5.35;;;3.13;;
55641;SDS011;41509;53.108;6.100;2023-04-05T14:25:22;5.63;;;3.53;;
55641;SDS011;41509;53.108;6.100;2023-04-05T14:28:00;7.43;;;3.28;;
55641;SDS011;41509;53.108;6.100;2023-04-05T14:30:32;5.38;;;3.28;;
55641;SDS011;41509;53.108;6.100;2023-04-05T14:33:07;6.65;;;3.17;;
55641;SDS011;41509;53.108;6.100;2023-04-05T14:36:09;5.72;;;3.33;;
55641;SDS011;41509;53.108;6.100;2023-04-05T14:42:31;6.47;;;3.00;;
55641;SDS011;41509;53.108;6.100;2023-04-05T14:44:57;6.15;;;3.67;;
55641;SDS011;41509;53.108;6.100;2023-04-05T14:47:30;9.75;;;4.45;;
55641;SDS011;41509;53.108;6.100;2023-04-05T14:49:58;6.95;;;3.75;;
55641;SDS011;41509;53.108;6.100;2023-04-05T14:52:39;5.30;;;3.38;;
55641;SDS011;41509;53.108;6.100;2023-04-05T14:55:24;7.47;;;3.58;;
55641;SDS011;41509;53.108;6.100;2023-04-05T14:57:56;6.00;;;3.65;;
55641;SDS011;41509;53.108;6.100;2023-04-05T15:00:22;5.90;;;3.45;;
55641;SDS011;41509;53.108;6.100;2023-04-05T15:02:48;5.82;;;3.15;;
55641;SDS011;41509;53.108;6.100;2023-04-05T15:05:20;4.38;;;3.03;;
55641;SDS011;41509;53.108;6.100;2023-04-05T15:07:55;4.47;;;3.05;;
55641;SDS011;41509;53.108;6.100;2023-04-05T15:10:26;6.55;;;3.50;;
55641;SDS011;41509;53.108;6.100;2023-04-05T15:13:00;8.68;;;3.78;;
55641;SDS011;41509;53.108;6.100;2023-04-05T15:15:28;4.43;;;3.05;;
55641;SDS011;41509;53.108;6.100;2023-04-05T15:20:20;6.10;;;3.60;;
55641;SDS011;41509;53.108;6.100;2023-04-05T15:22:55;6.70;;;3.13;;
55641;SDS011;41509;53.108;6.100;2023-04-05T15:25:28;4.95;;;3.38;;
55641;SDS011;41509;53.108;6.100;2023-04-05T15:28:05;4.35;;;3.05;;
55641;SDS011;41509;53.108;6.100;2023-04-05T15:30:39;6.78;;;3.40;;
55641;SDS011;41509;53.108;6.100;2023-04-05T15:33:19;5.38;;;3.00;;
55641;SDS011;41509;53.108;6.100;2023-04-05T15:35:50;5.82;;;3.38;;
55641;SDS011;41509;53.108;6.100;2023-04-05T15:38:21;4.72;;;3.15;;
55641;SDS011;41509;53.108;6.100;2023-04-05T15:41:11;6.60;;;3.47;;
55641;SDS011;41509;53.108;6.100;2023-04-05T15:43:40;4.78;;;3.13;;
55641;SDS011;41509;53.108;6.100;2023-04-05T15:46:08;8.43;;;3.53;;
55641;SDS011;41509;53.108;6.100;2023-04-05T15:48:39;6.43;;;3.72;;
55641;SDS011;41509;53.108;6.100;2023-04-05T15:51:08;5.68;;;3.10;;
55641;SDS011;41509;53.108;6.100;2023-04-05T15:53:45;7.70;;;4.20;;
55641;SDS011;41509;53.108;6.100;2023-04-05T15:56:20;6.57;;;3.28;;
55641;SDS011;41509;53.108;6.100;2023-04-05T15:58:49;5.80;;;3.67;;
55641;SDS011;41509;53.108;6.100;2023-04-05T16:01:17;6.63;;;3.70;;
55641;SDS011;41509;53.108;6.100;2023-04-05T16:03:48;7.20;;;3.63;;
55641;SDS011;41509;53.108;6.100;2023-04-05T16:06:29;6.18;;;3.28;;
55641;SDS011;41509;53.108;6.100;2023-04-05T16:09:01;5.72;;;2.97;;
55641;SDS011;41509;53.108;6.100;2023-04-05T16:11:48;6.15;;;3.58;;
55641;SDS011;41509;53.108;6.100;2023-04-05T16:14:16;5.53;;;3.25;;
55641;SDS011;41509;53.108;6.100;2023-04-05T16:17:11;5.88;;;3.03;;
55641;SDS011;41509;53.108;6.100;2023-04-05T16:19:55;5.57;;;2.95;;
55641;SDS011;41509;53.108;6.100;2023-04-05T16:22:24;8.15;;;3.85;;
55641;SDS011;41509;53.108;6.100;2023-04-05T16:28:46;5.40;;;3.00;;
55641;SDS011;41509;53.108;6.100;2023-04-05T16:31:19;5.50;;;3.33;;
55641;SDS011;41509;53.108;6.100;2023-04-05T16:34:03;4.57;;;3.15;;